METAR AND TAF INFORMATION
METAR FOR LEBA
ADDS - METARS form results

(1941 UTC 03 August 2021)
Data provider http://aviationweather.gov/metar/data/
 
METAR text: LEBA 031930Z AUTO 24004KT CAVOK 32/07 Q1012
Conditions at: LEBA (CORDOBA AIRPORT , ES) observed 1930 UTC 03 August 2021
Temperature: 32.0°C (90°F)
Dewpoint: 7.0°C (45°F) [RH = 21%]
Pressure (altimeter): 29.88 inches Hg (1012.0 mb)
Winds: from the WSW (240 degrees) at 5 MPH (4 knots; 2.1 m/s)
Visibility: 6 or more miles (10+ km)
Ceiling: ceiling and visibility are OK
Clouds: unknown
Weather: no significant weather observed at this time

METAR text: LEBA 031900Z AUTO 24005KT 210V280 CAVOK 33/07 Q1012
Conditions at: LEBA (CORDOBA AIRPORT , ES) observed 1900 UTC 03 August 2021
Temperature: 33.0°C (91°F)
Dewpoint: 7.0°C (45°F) [RH = 20%]
Pressure (altimeter): 29.88 inches Hg (1012.0 mb)
Winds: from the WSW (240 degrees) at 6 MPH (5 knots; 2.6 m/s)
Visibility: 6 or more miles (10+ km)
Ceiling: ceiling and visibility are OK
Clouds: unknown
Weather: no significant weather observed at this time

Forecast for: LEBA (CORDOBA AIRPORT , ES)
Text: TAF LEBA 031400Z 0315/0415 26005KT CAVOK TX38/0415Z TN24/0405Z
Forecast period: 1500 UTC 03 August 2021 to 1500 UTC 04 August 2021
Forecast type: FROM: standard forecast or significant change
Winds: from the W (260 degrees) at 6 MPH (5 knots; 2.6 m/s)
Visibility: 6 or more miles (10+ km)
Ceiling: unknown
Clouds: missing
Weather: no significant weather forecast for this period

 AIRPORT MAP

 RUNWAY INFORMATION
Runway 03 Runway length 4527 ft Runway width 148 ft
Runway elevation 293 ft Runway displaced threshold 0 ft Runway heading 29
Runway 21 Runway length 4527 ft Runway width 148 ft
Runway elevation 297 ft Runway displaced threshold 0 ft Runway heading 209

 AIRPORT FREQUENCIES
Type CTAF Name CTAF Frequency 118.3 MHZ

 AIRPORT NEAR NAVIGATION AIDS
Type VOR-DME Name Cordoba Frequency 112400 KHZ
Type NDB Name Cordoba Frequency 366 KHZ





Powered by Virtual Airlines Manager

Maps by Rafael Santos